Time;durP1;ratioP1;P1;durP2;ratioP2;P2;SDS_P1;SDS_P2;PMS_P1;PMS_P2;Temp;Humidity;BMP_temperature;BMP_pressure;BME280_temperature;BME280_humidity;BME280_pressure;Samples;Min_cycle;Max_cycle;Signal;HPM_P1;HPM_P2
2021/08/13 00:01:47;;;;;;;8.30;7.40;;;19.40;99.30;;;;;;5111936;28;20612;-91
2021/08/13 00:04:15;;;;;;;11.03;8.17;;;19.40;99.20;;;;;;5112282;28;20616;-91
2021/08/13 00:06:43;;;;;;;8.00;7.30;;;19.40;99.30;;;;;;5108330;28;20616;-90
2021/08/13 00:09:11;;;;;;;10.00;8.70;;;19.40;99.30;;;;;;5111804;28;20612;-91
2021/08/13 00:11:39;;;;;;;7.60;6.90;;;19.40;99.00;;;;;;5112024;28;20718;-91
2021/08/13 00:14:08;;;;;;;8.93;7.87;;;19.40;99.50;;;;;;5112108;28;20698;-90
2021/08/13 00:16:36;;;;;;;9.20;8.30;;;19.40;99.80;;;;;;5112072;28;20634;-91
2021/08/13 00:19:05;;;;;;;9.20;8.27;;;19.50;99.30;;;;;;5111661;28;21173;-91
2021/08/13 00:21:32;;;;;;;9.43;8.40;;;19.60;99.00;;;;;;5111283;28;20974;-91
2021/08/13 00:23:59;;;;;;;9.33;8.53;;;19.70;98.40;;;;;;5111737;28;20670;-91
2021/08/13 00:26:27;;;;;;;8.47;7.67;;;19.70;99.00;;;;;;5111968;28;20966;-91
2021/08/13 00:28:55;;;;;;;9.23;8.33;;;19.70;98.80;;;;;;5111858;28;20686;-92
2021/08/13 00:31:22;;;;;;;9.10;8.20;;;19.70;98.80;;;;;;5112035;28;20612;-92
2021/08/13 00:33:49;;;;;;;9.23;8.43;;;19.80;98.20;;;;;;5111628;28;21047;-91
2021/08/13 00:36:18;;;;;;;8.90;8.10;;;19.80;98.00;;;;;;5111185;28;21208;-91
2021/08/13 00:38:45;;;;;;;9.47;8.67;;;19.80;98.10;;;;;;5112060;28;20616;-90
2021/08/13 00:41:12;;;;;;;8.77;7.97;;;19.70;98.70;;;;;;5111918;28;20615;-91
2021/08/13 00:43:39;;;;;;;11.23;8.50;;;19.60;99.10;;;;;;5111407;28;21076;-91
2021/08/13 00:46:06;;;;;;;8.60;7.80;;;19.60;99.20;;;;;;5113281;28;20624;-90
2021/08/13 00:48:36;;;;;;;10.63;9.20;;;19.50;98.70;;;;;;5115721;28;20636;-90
2021/08/13 00:51:03;;;;;;;9.60;8.70;;;19.60;98.90;;;;;;5111485;28;20660;-90
2021/08/13 00:53:32;;;;;;;9.93;8.63;;;19.50;99.70;;;;;;5111456;28;20957;-91
2021/08/13 00:55:59;;;;;;;8.00;7.30;;;19.50;99.80;;;;;;5111530;28;20619;-91
2021/08/13 00:58:26;;;;;;;8.70;7.90;;;19.40;99.90;;;;;;5110980;28;20710;-90
2021/08/13 01:00:54;;;;;;;9.07;8.27;;;19.40;99.90;;;;;;5111089;27;20615;-90
2021/08/13 01:03:23;;;;;;;9.33;8.40;;;19.40;99.90;;;;;;5110477;28;20671;-91
2021/08/13 01:05:50;;;;;;;9.57;8.57;;;19.30;99.90;;;;;;5111836;28;20619;-91
2021/08/13 01:08:19;;;;;;;9.40;8.50;;;19.20;99.90;;;;;;5111509;28;20746;-90
2021/08/13 01:10:58;;;;;;;9.30;8.50;;;19.30;99.90;;;;;;5111502;28;20650;-90
2021/08/13 01:13:35;;;;;;;9.23;8.33;;;19.30;99.90;;;;;;5111374;28;21014;-91
2021/08/13 01:16:06;;;;;;;8.47;7.60;;;19.20;99.90;;;;;;5111499;28;21159;-91
2021/08/13 01:18:38;;;;;;;9.50;8.67;;;19.20;99.90;;;;;;5111303;28;21412;-91
2021/08/13 01:21:38;;;;;;;9.50;8.60;;;19.30;99.90;;;;;;5111013;28;20619;-90
2021/08/13 01:24:11;;;;;;;9.13;8.23;;;19.30;99.90;;;;;;5075941;28;21020;-91
2021/08/13 01:26:46;;;;;;;9.83;8.93;;;19.30;99.90;;;;;;5111211;28;20620;-90
2021/08/13 01:29:24;;;;;;;10.37;9.37;;;19.30;99.80;;;;;;5110856;28;20668;-91
2021/08/13 01:32:11;;;;;;;9.80;8.80;;;19.40;99.30;;;;;;5110715;28;20630;-91
2021/08/13 01:34:43;;;;;;;13.00;9.40;;;19.50;99.30;;;;;;5110456;28;20988;-90
2021/08/13 01:37:13;;;;;;;11.37;10.20;;;19.50;99.30;;;;;;5110948;28;20640;-90
2021/08/13 01:39:42;;;;;;;10.40;9.17;;;19.50;99.00;;;;;;5110801;28;20673;-90
2021/08/13 01:42:11;;;;;;;10.70;9.70;;;19.50;99.00;;;;;;5110875;28;20710;-90
2021/08/13 01:44:40;;;;;;;11.20;10.10;;;19.40;99.00;;;;;;5110738;28;20607;-90
2021/08/13 01:47:08;;;;;;;10.80;9.70;;;19.40;99.20;;;;;;5110404;28;20623;-90
2021/08/13 01:49:41;;;;;;;9.30;8.43;;;19.40;99.20;;;;;;5110800;28;20726;-90
2021/08/13 01:52:09;;;;;;;10.63;9.67;;;19.40;99.00;;;;;;5110399;28;20649;-90
2021/08/13 01:54:40;;;;;;;10.60;9.57;;;19.40;99.10;;;;;;5111181;28;20713;-90
2021/08/13 01:57:09;;;;;;;10.20;9.20;;;19.40;99.40;;;;;;5114707;28;20677;-91
2021/08/13 01:59:40;;;;;;;10.57;9.53;;;19.30;99.80;;;;;;5111430;28;20623;-90
2021/08/13 02:02:09;;;;;;;10.47;9.47;;;19.30;99.90;;;;;;5110764;28;20655;-91
2021/08/13 02:04:40;;;;;;;10.13;9.03;;;19.20;99.90;;;;;;5110791;28;20893;-90
2021/08/13 02:07:11;;;;;;;9.73;8.87;;;19.10;99.90;;;;;;5111061;28;21017;-90
2021/08/13 02:09:39;;;;;;;11.10;10.00;;;19.20;99.90;;;;;;5107191;28;20684;-91
2021/08/13 02:12:08;;;;;;;10.43;8.80;;;19.20;99.90;;;;;;5109059;28;21060;-90
2021/08/13 02:14:38;;;;;;;10.10;9.10;;;19.20;99.90;;;;;;5107390;28;20701;-90
2021/08/13 02:17:13;;;;;;;10.50;9.60;;;19.20;99.90;;;;;;5114165;28;20636;-90
2021/08/13 02:19:48;;;;;;;10.13;9.23;;;19.20;99.90;;;;;;5114793;28;20624;-90
2021/08/13 02:22:20;;;;;;;10.17;9.10;;;19.20;99.90;;;;;;5113923;27;20671;-89
2021/08/13 02:24:53;;;;;;;10.00;9.10;;;19.10;99.90;;;;;;5114297;28;20742;-90
2021/08/13 02:27:22;;;;;;;10.90;9.07;;;19.10;99.90;;;;;;5114304;28;20623;-90
2021/08/13 02:29:50;;;;;;;10.07;9.03;;;19.10;99.90;;;;;;5114289;28;20718;-89
2021/08/13 02:32:19;;;;;;;8.97;8.10;;;19.10;99.90;;;;;;5113636;28;20650;-90
2021/08/13 02:34:47;;;;;;;11.80;9.37;;;19.10;99.90;;;;;;5113858;28;20966;-90
2021/08/13 02:37:21;;;;;;;11.03;10.03;;;19.20;99.90;;;;;;5113717;28;20621;-90
2021/08/13 02:39:54;;;;;;;10.30;8.90;;;19.20;99.90;;;;;;5114067;28;21356;-90
2021/08/13 02:42:29;;;;;;;10.43;9.43;;;19.20;99.90;;;;;;5113547;28;20628;-90
2021/08/13 02:45:02;;;;;;;10.10;9.10;;;19.10;99.90;;;;;;5114238;28;20626;-89
2021/08/13 02:47:31;;;;;;;13.70;10.07;;;19.10;99.90;;;;;;5113502;28;20664;-90
2021/08/13 02:50:05;;;;;;;10.70;9.47;;;19.00;99.90;;;;;;5113932;28;20965;-90
2021/08/13 02:52:42;;;;;;;10.27;9.27;;;19.10;99.90;;;;;;5113188;28;21260;-90
2021/08/13 02:55:13;;;;;;;11.23;10.13;;;19.10;99.90;;;;;;5113715;28;20621;-90
2021/08/13 02:57:43;;;;;;;11.23;10.13;;;19.20;99.90;;;;;;5113988;28;20615;-89
2021/08/13 03:00:11;;;;;;;11.57;10.47;;;19.20;99.90;;;;;;5113835;28;20713;-90
2021/08/13 03:02:39;;;;;;;10.27;9.37;;;19.30;99.90;;;;;;5113357;28;20618;-90
2021/08/13 03:05:09;;;;;;;11.00;9.47;;;19.30;99.90;;;;;;5113562;28;20689;-89
2021/08/13 03:07:39;;;;;;;10.70;9.50;;;19.40;99.90;;;;;;5118166;28;20616;-90
2021/08/13 03:10:09;;;;;;;10.70;9.67;;;19.40;99.80;;;;;;5115611;28;20706;-90
2021/08/13 03:12:38;;;;;;;10.00;9.10;;;19.50;99.70;;;;;;5112240;28;21271;-90
2021/08/13 03:15:06;;;;;;;8.80;8.10;;;19.50;99.70;;;;;;5113752;28;20648;-90
2021/08/13 03:17:34;;;;;;;12.90;9.30;;;19.60;99.80;;;;;;5113434;28;20706;-90
2021/08/13 03:20:03;;;;;;;11.70;9.33;;;19.50;99.90;;;;;;5113329;28;21176;-90
2021/08/13 03:22:32;;;;;;;9.77;8.77;;;19.60;99.90;;;;;;5111794;28;20592;-89
2021/08/13 03:25:01;;;;;;;11.27;10.17;;;19.60;99.60;;;;;;5092395;28;20792;-90
2021/08/13 03:27:28;;;;;;;10.27;9.37;;;19.70;99.30;;;;;;5092468;28;20613;-89
2021/08/13 03:29:55;;;;;;;10.20;9.30;;;19.70;99.60;;;;;;5092653;28;20624;-90
2021/08/13 03:32:22;;;;;;;11.50;10.40;;;19.80;99.80;;;;;;5092733;28;20647;-90
2021/08/13 03:34:50;;;;;;;10.30;9.30;;;19.80;99.80;;;;;;5092658;28;20609;-90
2021/08/13 03:37:17;;;;;;;10.60;9.70;;;19.80;99.50;;;;;;5092349;28;20636;-90
2021/08/13 03:39:44;;;;;;;10.93;9.73;;;19.80;99.80;;;;;;5092279;28;20601;-90
2021/08/13 03:42:12;;;;;;;10.53;9.53;;;19.70;99.90;;;;;;5092050;28;20652;-89
2021/08/13 03:44:39;;;;;;;11.57;10.37;;;19.70;99.90;;;;;;5092386;28;20672;-90
2021/08/13 03:47:06;;;;;;;10.90;9.90;;;19.70;99.90;;;;;;5092353;28;20964;-89
2021/08/13 03:49:33;;;;;;;12.93;9.63;;;19.70;99.90;;;;;;5092128;28;20609;-90
2021/08/13 03:52:00;;;;;;;11.93;10.80;;;19.80;99.90;;;;;;5099904;28;20600;-89
2021/08/13 03:54:27;;;;;;;10.97;10.00;;;19.80;99.90;;;;;;5108923;28;20608;-90
2021/08/13 03:56:54;;;;;;;14.13;9.80;;;19.90;99.90;;;;;;5110017;28;21206;-89
2021/08/13 03:59:22;;;;;;;10.83;9.83;;;19.80;99.90;;;;;;5112261;28;21125;-89
2021/08/13 04:01:49;;;;;;;11.60;10.50;;;19.80;99.90;;;;;;5111102;28;20616;-89
2021/08/13 04:04:16;;;;;;;12.00;10.90;;;19.70;99.90;;;;;;5111356;28;20675;-88
2021/08/13 04:06:43;;;;;;;11.80;10.80;;;19.60;99.90;;;;;;5110831;28;20612;-89
2021/08/13 04:09:10;;;;;;;12.73;9.83;;;19.60;99.90;;;;;;5110935;28;20600;-89
2021/08/13 04:11:37;;;;;;;11.27;10.03;;;19.60;99.90;;;;;;5111893;28;20632;-89
2021/08/13 04:14:05;;;;;;;12.33;11.13;;;19.70;99.90;;;;;;5111022;28;20681;-89
2021/08/13 04:16:33;;;;;;;10.43;9.50;;;19.80;99.90;;;;;;5110598;28;20627;-89
2021/08/13 04:19:03;;;;;;;12.37;11.00;;;19.80;99.90;;;;;;5120359;28;20627;-89
2021/08/13 04:21:30;;;;;;;14.27;11.53;;;19.80;99.90;;;;;;5111664;28;20624;-89
2021/08/13 04:23:57;;;;;;;14.50;11.87;;;19.70;99.90;;;;;;5111300;28;21470;-89
2021/08/13 04:26:24;;;;;;;14.53;11.37;;;19.70;99.90;;;;;;5111691;28;20649;-89
2021/08/13 04:28:51;;;;;;;11.60;10.50;;;19.70;99.90;;;;;;5111297;28;20624;-89
2021/08/13 04:31:18;;;;;;;12.40;11.20;;;19.60;99.90;;;;;;5110569;28;20612;-89
2021/08/13 04:33:46;;;;;;;11.73;10.60;;;19.60;99.90;;;;;;5110416;28;20600;-89
2021/08/13 04:36:13;;;;;;;11.60;10.50;;;19.60;99.90;;;;;;5111260;28;20615;-89
2021/08/13 04:38:40;;;;;;;11.93;10.70;;;19.60;99.90;;;;;;5111508;28;21157;-88
2021/08/13 04:41:07;;;;;;;12.37;11.07;;;19.50;99.90;;;;;;5111219;28;20623;-89
2021/08/13 04:43:34;;;;;;;12.97;11.67;;;19.60;99.90;;;;;;5110442;28;20992;-88
2021/08/13 04:46:01;;;;;;;11.43;10.43;;;19.60;99.90;;;;;;5111137;28;20616;-89
2021/08/13 04:48:28;;;;;;;12.03;10.93;;;19.60;99.90;;;;;;5109878;28;20612;-88
2021/08/13 04:50:57;;;;;;;12.70;11.00;;;19.60;99.90;;;;;;5111200;28;20947;-88
2021/08/13 04:53:23;;;;;;;10.33;9.33;;;19.60;99.90;;;;;;5110430;28;20619;-88
2021/08/13 04:55:50;;;;;;;10.47;9.47;;;19.70;99.90;;;;;;5111228;28;20669;-88
2021/08/13 04:58:17;;;;;;;11.77;10.57;;;19.60;99.90;;;;;;5111333;28;20608;-89
2021/08/13 05:00:47;;;;;;;10.60;9.50;;;19.60;99.90;;;;;;5110560;28;20616;-88
2021/08/13 05:03:14;;;;;;;11.23;10.13;;;19.60;99.90;;;;;;5111510;28;20624;-88
2021/08/13 05:05:42;;;;;;;11.17;9.80;;;19.50;99.90;;;;;;5111219;28;20604;-88
2021/08/13 05:08:10;;;;;;;11.30;10.20;;;19.60;99.90;;;;;;5111248;28;20640;-88
2021/08/13 05:10:40;;;;;;;13.07;11.83;;;19.60;99.90;;;;;;5110954;28;20607;-89
2021/08/13 05:13:07;;;;;;;12.33;11.13;;;19.60;99.90;;;;;;5110734;28;20642;-88
2021/08/13 05:15:34;;;;;;;12.77;10.70;;;19.60;99.90;;;;;;5110520;28;20645;-89
2021/08/13 05:18:01;;;;;;;12.23;10.80;;;19.60;99.90;;;;;;5111301;28;20611;-89
2021/08/13 05:20:28;;;;;;;13.07;10.43;;;19.60;99.90;;;;;;5111031;28;20661;-89
2021/08/13 05:22:55;;;;;;;13.07;10.53;;;19.60;99.90;;;;;;5110246;28;21148;-88
2021/08/13 05:25:24;;;;;;;14.27;10.50;;;19.60;99.90;;;;;;5111071;28;20652;-88
2021/08/13 05:27:55;;;;;;;14.53;10.70;;;19.60;99.90;;;;;;5107063;28;20658;-88
2021/08/13 05:30:30;;;;;;;12.17;10.90;;;19.60;99.90;;;;;;5112792;28;20734;-89
2021/08/13 05:32:57;;;;;;;17.40;11.33;;;19.60;99.90;;;;;;5110853;28;20981;-88
2021/08/13 05:35:25;;;;;;;12.10;10.83;;;19.60;99.90;;;;;;5111295;28;20604;-88
2021/08/13 05:37:51;;;;;;;15.57;10.20;;;19.60;99.90;;;;;;5110738;28;20619;-88
2021/08/13 05:40:18;;;;;;;11.23;10.13;;;19.60;99.90;;;;;;5110578;28;21175;-88
2021/08/13 05:42:47;;;;;;;11.57;10.57;;;19.60;99.90;;;;;;5110897;28;21196;-87
2021/08/13 05:45:14;;;;;;;13.93;12.23;;;19.70;99.90;;;;;;5112954;28;21570;-87
2021/08/13 05:47:41;;;;;;;19.03;12.13;;;19.80;99.90;;;;;;5115232;28;20620;-88
2021/08/13 05:50:10;;;;;;;14.43;11.00;;;19.80;99.90;;;;;;5115157;28;20994;-87
2021/08/13 05:52:37;;;;;;;13.90;10.40;;;19.90;99.90;;;;;;5114509;28;20626;-88
2021/08/13 05:55:05;;;;;;;13.90;11.40;;;20.00;99.90;;;;;;5114319;28;20619;-88
2021/08/13 05:57:32;;;;;;;12.70;11.30;;;20.20;99.90;;;;;;5114845;28;20608;-88
2021/08/13 06:00:00;;;;;;;11.43;10.23;;;20.20;99.90;;;;;;5115009;28;20652;-88
2021/08/13 06:02:27;;;;;;;13.20;10.70;;;20.40;99.90;;;;;;5114201;28;20740;-88
2021/08/13 06:04:56;;;;;;;10.83;9.77;;;20.40;99.90;;;;;;5114638;28;21118;-87
2021/08/13 06:07:23;;;;;;;13.20;10.83;;;20.40;99.90;;;;;;5114281;28;20671;-87
2021/08/13 06:09:50;;;;;;;12.93;10.83;;;20.50;99.90;;;;;;5114935;28;20613;-87
2021/08/13 06:12:18;;;;;;;12.10;10.07;;;20.50;99.90;;;;;;5113906;28;20608;-87
2021/08/13 06:14:44;;;;;;;11.90;10.70;;;20.60;99.90;;;;;;5114535;28;20628;-87
2021/08/13 06:17:13;;;;;;;11.80;10.17;;;20.70;99.90;;;;;;5114294;28;20612;-87
2021/08/13 06:19:40;;;;;;;10.67;9.73;;;20.70;99.90;;;;;;5114280;28;21162;-86
2021/08/13 06:22:07;;;;;;;10.30;9.30;;;20.80;99.90;;;;;;5113181;28;20617;-87
2021/08/13 06:24:34;;;;;;;11.37;10.27;;;20.80;99.90;;;;;;5114340;28;20648;-87
2021/08/13 06:27:01;;;;;;;11.87;10.67;;;20.90;99.90;;;;;;5114017;28;20597;-87
2021/08/13 06:29:28;;;;;;;11.30;10.30;;;21.00;99.90;;;;;;5113997;28;20616;-86
2021/08/13 06:31:54;;;;;;;12.20;11.00;;;21.10;99.90;;;;;;5113752;28;20606;-87
2021/08/13 06:34:23;;;;;;;11.73;10.67;;;21.20;99.90;;;;;;5114162;28;20637;-87
2021/08/13 06:36:50;;;;;;;11.00;9.87;;;21.40;99.90;;;;;;5113660;28;20611;-86
2021/08/13 06:39:17;;;;;;;11.47;10.37;;;21.40;99.90;;;;;;5115196;28;20608;-87
2021/08/13 06:41:43;;;;;;;13.33;8.70;;;21.50;99.90;;;;;;5114361;28;20610;-86
2021/08/13 06:44:11;;;;;;;10.90;9.90;;;21.60;99.90;;;;;;5114051;28;21035;-87
2021/08/13 06:46:38;;;;;;;10.13;9.13;;;21.60;99.90;;;;;;5114011;28;20618;-86
2021/08/13 06:49:05;;;;;;;10.67;9.70;;;21.70;99.90;;;;;;5113530;28;20630;-86
2021/08/13 06:51:33;;;;;;;10.00;9.10;;;21.60;99.90;;;;;;5113426;28;20608;-86
2021/08/13 06:54:00;;;;;;;11.80;10.77;;;21.70;99.20;;;;;;5114018;27;20674;-86
2021/08/13 06:56:27;;;;;;;11.60;10.43;;;21.80;99.40;;;;;;5113199;28;20690;-86
2021/08/13 06:58:56;;;;;;;10.17;9.17;;;21.90;99.20;;;;;;5113725;28;20671;-86
2021/08/13 07:01:23;;;;;;;10.60;9.70;;;22.00;99.10;;;;;;5113290;28;20619;-86
2021/08/13 07:03:50;;;;;;;9.40;8.60;;;22.10;99.20;;;;;;5112885;28;21498;-87
2021/08/13 07:06:16;;;;;;;9.50;8.60;;;22.20;99.00;;;;;;5113499;27;20712;-86
2021/08/13 07:08:45;;;;;;;9.83;8.50;;;22.30;99.20;;;;;;5113608;28;20686;-86
2021/08/13 07:11:12;;;;;;;9.23;8.33;;;22.50;98.60;;;;;;5113257;28;21177;-86
2021/08/13 07:13:38;;;;;;;12.10;8.97;;;22.60;98.20;;;;;;5113127;28;20625;-87
2021/08/13 07:16:05;;;;;;;9.33;8.53;;;22.80;97.60;;;;;;5113270;28;20615;-86
2021/08/13 07:18:32;;;;;;;9.13;7.97;;;23.00;97.60;;;;;;5112965;28;20610;-86
2021/08/13 07:20:59;;;;;;;10.20;9.07;;;23.10;97.20;;;;;;5113019;27;21193;-86
2021/08/13 07:23:26;;;;;;;9.47;8.07;;;23.10;96.90;;;;;;5111979;28;20667;-86
2021/08/13 07:25:54;;;;;;;8.67;7.67;;;23.20;96.50;;;;;;5113139;28;20671;-86
2021/08/13 07:28:21;;;;;;;7.97;7.17;;;23.30;96.60;;;;;;5112899;28;20717;-86
2021/08/13 07:30:48;;;;;;;8.50;6.93;;;23.30;97.00;;;;;;5112186;28;20611;-86
2021/08/13 07:33:15;;;;;;;7.87;7.10;;;23.40;95.90;;;;;;5112307;28;20676;-86
2021/08/13 07:35:42;;;;;;;7.83;7.03;;;23.50;95.50;;;;;;5112872;27;20623;-86
2021/08/13 07:38:09;;;;;;;10.30;7.50;;;23.60;96.10;;;;;;5112502;28;21184;-86
2021/08/13 07:40:37;;;;;;;6.80;6.27;;;23.70;95.70;;;;;;5112820;28;20614;-85
2021/08/13 07:43:07;;;;;;;7.37;6.77;;;23.80;95.30;;;;;;5111930;28;20941;-84
2021/08/13 07:45:34;;;;;;;10.43;7.10;;;23.90;94.40;;;;;;5112166;28;20663;-87
2021/08/13 07:48:01;;;;;;;6.50;5.70;;;24.00;94.00;;;;;;5112857;28;20611;-86
2021/08/13 07:50:28;;;;;;;7.00;6.40;;;24.10;93.10;;;;;;5112915;28;20680;-85
2021/08/13 07:52:55;;;;;;;6.67;5.97;;;24.20;94.00;;;;;;5112826;28;20672;-87
2021/08/13 07:55:22;;;;;;;6.23;5.73;;;24.30;93.60;;;;;;5112858;27;20655;-85
2021/08/13 07:57:49;;;;;;;7.20;5.70;;;24.40;93.70;;;;;;5112139;28;20641;-86
2021/08/13 08:00:18;;;;;;;6.37;5.77;;;24.40;92.50;;;;;;5112708;28;20938;-86
2021/08/13 08:02:45;;;;;;;8.10;7.03;;;24.60;92.20;;;;;;5112067;28;20631;-86
2021/08/13 08:05:12;;;;;;;6.70;6.10;;;24.70;92.50;;;;;;5112624;28;20989;-86
2021/08/13 08:07:38;;;;;;;6.93;6.27;;;24.80;92.70;;;;;;5111540;28;20623;-85
2021/08/13 08:10:06;;;;;;;7.67;6.20;;;24.80;91.30;;;;;;5111842;28;20611;-86
2021/08/13 08:12:33;;;;;;;6.03;4.87;;;24.90;90.60;;;;;;5111026;28;20599;-86
2021/08/13 08:15:00;;;;;;;7.50;5.10;;;25.00;90.30;;;;;;5112161;28;20651;-86
2021/08/13 08:17:28;;;;;;;6.43;5.83;;;25.20;90.90;;;;;;5112229;28;20619;-87
2021/08/13 08:19:55;;;;;;;7.20;5.80;;;25.10;90.70;;;;;;5112046;28;20612;-87
2021/08/13 08:22:22;;;;;;;6.93;4.93;;;25.50;90.10;;;;;;5110714;28;20676;-87
2021/08/13 08:24:49;;;;;;;7.60;5.77;;;25.40;90.00;;;;;;5111805;28;21223;-86
2021/08/13 08:27:16;;;;;;;8.60;5.97;;;25.50;90.00;;;;;;5111453;28;20612;-86
2021/08/13 08:29:43;;;;;;;6.93;5.60;;;25.40;90.10;;;;;;5111869;28;20611;-86
2021/08/13 08:32:10;;;;;;;6.27;5.27;;;25.50;90.00;;;;;;5111182;28;20622;-86
2021/08/13 08:34:38;;;;;;;6.03;5.50;;;25.50;89.70;;;;;;5111577;28;20662;-85
2021/08/13 08:37:09;;;;;;;7.13;6.17;;;25.60;90.20;;;;;;5111916;28;20618;-87
2021/08/13 08:39:36;;;;;;;6.63;6.13;;;25.70;89.40;;;;;;5111057;28;20665;-86
2021/08/13 08:42:04;;;;;;;5.87;5.40;;;25.70;89.80;;;;;;5110995;28;20651;-85
2021/08/13 08:44:30;;;;;;;10.50;6.93;;;25.80;89.40;;;;;;5111225;28;20627;-87
2021/08/13 08:46:58;;;;;;;6.43;5.83;;;25.70;90.00;;;;;;5111429;28;20608;-86
2021/08/13 08:49:25;;;;;;;6.43;5.87;;;25.80;90.30;;;;;;5111323;27;21001;-86
2021/08/13 08:51:56;;;;;;;7.37;5.97;;;25.70;88.80;;;;;;5110773;28;20611;-86
2021/08/13 08:54:26;;;;;;;7.40;6.27;;;25.80;90.70;;;;;;5111266;28;20691;-86
2021/08/13 08:56:54;;;;;;;7.30;5.90;;;25.80;90.40;;;;;;5111449;28;21106;-86
2021/08/13 08:59:22;;;;;;;8.93;5.73;;;25.80;89.90;;;;;;5111229;28;20619;-87
2021/08/13 09:01:49;;;;;;;7.53;6.73;;;25.90;89.90;;;;;;5111311;28;20668;-86
2021/08/13 09:04:16;;;;;;;7.10;6.40;;;26.00;90.30;;;;;;5111723;28;20616;-87
2021/08/13 09:06:44;;;;;;;7.00;6.40;;;26.10;90.00;;;;;;5110931;28;20744;-87
2021/08/13 09:09:13;;;;;;;6.97;6.20;;;26.20;86.20;;;;;;5111074;28;20677;-86
2021/08/13 09:11:41;;;;;;;7.73;6.33;;;26.10;88.70;;;;;;5110707;28;20628;-87
2021/08/13 09:14:10;;;;;;;8.90;7.30;;;26.30;87.80;;;;;;5111123;28;20619;-87
2021/08/13 09:16:37;;;;;;;10.07;6.07;;;26.50;88.70;;;;;;5111075;27;20655;-86
2021/08/13 09:19:05;;;;;;;8.23;7.13;;;26.70;89.20;;;;;;5110267;28;20664;-87
2021/08/13 09:21:33;;;;;;;9.10;6.27;;;26.80;89.00;;;;;;5110739;28;20620;-86
2021/08/13 09:24:09;;;;;;;7.57;6.47;;;27.00;86.20;;;;;;5110153;28;20608;-87
2021/08/13 09:26:43;;;;;;;8.77;6.13;;;27.10;88.90;;;;;;5111453;28;21012;-86
2021/08/13 09:29:11;;;;;;;7.10;6.47;;;27.30;87.00;;;;;;5093471;28;21052;-86
2021/08/13 09:31:39;;;;;;;9.90;7.50;;;27.40;85.30;;;;;;5089536;28;20621;-86
2021/08/13 09:34:08;;;;;;;7.43;6.67;;;27.50;87.40;;;;;;5090665;28;20651;-85
2021/08/13 09:36:37;;;;;;;8.40;6.63;;;27.60;83.70;;;;;;5090419;28;20960;-86
2021/08/13 09:39:06;;;;;;;7.00;6.30;;;27.70;85.50;;;;;;5090492;28;20645;-85
2021/08/13 09:41:46;;;;;;;7.20;6.60;;;27.80;87.60;;;;;;5089711;28;20677;-84
2021/08/13 09:44:14;;;;;;;7.23;6.63;;;27.80;85.90;;;;;;5089562;28;20616;-85
2021/08/13 09:46:56;;;;;;;9.23;7.50;;;27.90;84.70;;;;;;5090105;28;21148;-86
2021/08/13 09:49:23;;;;;;;7.97;7.10;;;27.80;84.00;;;;;;5090146;28;20727;-86
2021/08/13 09:51:51;;;;;;;8.43;6.87;;;27.60;83.60;;;;;;5089399;28;21191;-84
2021/08/13 09:54:18;;;;;;;8.00;7.20;;;27.50;85.40;;;;;;5090177;28;20642;-85
2021/08/13 09:56:46;;;;;;;8.13;7.27;;;27.60;87.10;;;;;;5089515;28;20671;-86
2021/08/13 09:59:15;;;;;;;9.57;7.10;;;27.70;85.60;;;;;;5090130;28;20620;-86
2021/08/13 10:01:44;;;;;;;8.40;7.70;;;27.90;86.50;;;;;;5089352;28;20652;-85
2021/08/13 10:04:12;;;;;;;7.87;7.17;;;28.00;83.30;;;;;;5090215;28;21156;-86
2021/08/13 10:06:40;;;;;;;7.73;7.03;;;28.20;84.10;;;;;;5089886;28;20649;-86
2021/08/13 10:09:22;;;;;;;8.30;6.67;;;28.40;83.60;;;;;;5089496;28;20678;-85
2021/08/13 10:11:58;;;;;;;11.17;7.50;;;28.50;85.00;;;;;;5089446;28;20616;-86
2021/08/13 10:14:30;;;;;;;8.43;7.73;;;28.60;85.00;;;;;;5090495;28;20698;-85
2021/08/13 10:17:08;;;;;;;8.57;7.80;;;28.40;85.90;;;;;;5089922;28;20656;-86
2021/08/13 10:19:35;;;;;;;10.43;7.37;;;28.50;84.20;;;;;;5089750;28;20656;-86
2021/08/13 10:22:03;;;;;;;8.40;7.60;;;28.80;82.80;;;;;;5088519;28;20644;-84
2021/08/13 10:24:30;;;;;;;8.37;7.03;;;28.80;81.40;;;;;;5090126;28;20616;-86
2021/08/13 10:26:59;;;;;;;7.50;6.80;;;28.60;83.20;;;;;;5089941;28;20651;-85
2021/08/13 10:29:27;;;;;;;8.70;7.90;;;28.40;84.40;;;;;;5089492;28;21042;-86
2021/08/13 10:31:55;;;;;;;9.13;7.70;;;28.30;86.00;;;;;;5090143;28;20619;-85
2021/08/13 10:34:22;;;;;;;9.27;8.23;;;28.10;85.10;;;;;;5093398;28;21161;-84
2021/08/13 10:36:50;;;;;;;7.97;7.27;;;27.90;85.10;;;;;;5093558;28;20644;-85
2021/08/13 10:39:18;;;;;;;8.37;7.57;;;27.90;87.80;;;;;;5093654;28;20999;-87
2021/08/13 10:41:49;;;;;;;9.03;7.77;;;28.20;87.50;;;;;;5092757;28;20609;-87
2021/08/13 10:44:19;;;;;;;9.20;8.40;;;28.50;85.10;;;;;;5093317;28;20623;-86
2021/08/13 10:46:48;;;;;;;9.13;8.33;;;28.60;85.20;;;;;;5092463;28;20648;-84
2021/08/13 10:49:19;;;;;;;9.10;8.30;;;28.90;84.70;;;;;;5093553;28;20665;-85
2021/08/13 10:51:46;;;;;;;10.43;9.23;;;29.10;85.30;;;;;;5092812;28;20704;-85
2021/08/13 10:54:15;;;;;;;9.93;9.00;;;29.30;84.60;;;;;;5093413;28;20670;-86
2021/08/13 10:56:44;;;;;;;9.70;8.80;;;29.10;84.20;;;;;;5093137;28;20971;-86
2021/08/13 10:59:12;;;;;;;10.67;9.77;;;28.90;84.70;;;;;;5092538;28;20612;-87
2021/08/13 11:02:11;;;;;;;11.33;10.33;;;28.90;84.80;;;;;;5092537;28;20659;-86
2021/08/13 11:04:42;;;;;;;11.00;9.83;;;28.80;85.60;;;;;;5093130;28;20944;-88
2021/08/13 11:07:10;;;;;;;12.10;10.47;;;28.60;86.90;;;;;;5092801;28;20663;-85
2021/08/13 11:09:40;;;;;;;11.40;10.40;;;28.40;86.30;;;;;;5092355;28;20652;-87
2021/08/13 11:12:09;;;;;;;10.87;10.00;;;28.00;86.30;;;;;;5092291;28;20632;-87
2021/08/13 11:14:46;;;;;;;10.37;9.37;;;27.60;87.50;;;;;;5092777;28;20609;-86
2021/08/13 11:20:11;;;;;;;12.80;10.80;;;27.60;88.70;;;;;;5107567;27;21219;-87
2021/08/13 11:22:39;;;;;;;12.57;9.63;;;27.40;89.90;;;;;;5107588;28;20655;-88
2021/08/13 11:25:07;;;;;;;10.90;10.00;;;27.90;90.90;;;;;;5109576;28;20660;-87
2021/08/13 11:27:34;;;;;;;10.67;9.77;;;28.30;90.00;;;;;;5108398;28;20657;-88
2021/08/13 11:30:01;;;;;;;14.60;11.03;;;28.60;88.50;;;;;;5108065;28;20608;-87
2021/08/13 11:32:31;;;;;;;11.53;10.43;;;28.60;87.80;;;;;;5106893;28;20962;-86
2021/08/13 11:35:01;;;;;;;10.33;9.43;;;28.30;89.00;;;;;;5108313;28;20652;-88
2021/08/13 11:37:52;;;;;;;16.97;10.93;;;28.40;88.90;;;;;;5108203;28;20642;-88
2021/08/13 11:40:46;;;;;;;11.47;10.27;;;28.70;87.00;;;;;;5107996;28;20619;-87
2021/08/13 11:43:15;;;;;;;11.03;9.83;;;29.20;86.30;;;;;;5107591;28;21148;-88
2021/08/13 11:45:43;;;;;;;10.50;9.50;;;29.60;83.50;;;;;;5107919;28;20661;-87
2021/08/13 11:48:12;;;;;;;10.40;9.60;;;30.20;84.30;;;;;;5107788;28;21113;-86
2021/08/13 11:50:39;;;;;;;10.63;9.73;;;30.70;82.00;;;;;;5107646;28;20640;-87
2021/08/13 11:53:08;;;;;;;10.50;9.50;;;30.20;79.60;;;;;;5107005;28;21019;-86
2021/08/13 11:55:36;;;;;;;10.37;9.47;;;30.20;82.70;;;;;;5107267;28;20600;-87
2021/08/13 11:58:05;;;;;;;10.33;8.90;;;30.70;82.00;;;;;;5107433;28;20600;-85
2021/08/13 12:00:34;;;;;;;10.97;10.07;;;31.00;80.20;;;;;;5107294;28;20607;-86
2021/08/13 12:03:02;;;;;;;11.13;9.97;;;30.90;76.70;;;;;;5106474;28;20673;-85
2021/08/13 12:05:31;;;;;;;10.97;9.90;;;31.20;76.40;;;;;;5107226;28;20608;-86
2021/08/13 12:07:59;;;;;;;10.37;9.37;;;32.20;74.30;;;;;;5106930;28;20672;-85
2021/08/13 12:10:29;;;;;;;9.60;8.60;;;31.90;74.50;;;;;;5107388;28;20620;-85
2021/08/13 12:12:56;;;;;;;9.83;8.93;;;32.80;73.30;;;;;;5106650;28;20630;-87
2021/08/13 12:15:31;;;;;;;9.83;8.93;;;32.60;73.50;;;;;;5106916;28;20631;-87
2021/08/13 12:17:59;;;;;;;10.43;9.43;;;33.10;72.10;;;;;;5106559;28;20674;-87
2021/08/13 12:20:26;;;;;;;10.10;9.20;;;33.20;71.30;;;;;;5106574;28;20616;-86
2021/08/13 12:23:02;;;;;;;9.63;8.93;;;33.30;69.30;;;;;;5083208;28;20664;-88
2021/08/13 12:25:37;;;;;;;10.30;9.40;;;33.30;71.90;;;;;;5086631;28;20695;-88
2021/08/13 12:28:05;;;;;;;10.40;9.53;;;33.30;70.50;;;;;;5086434;28;20612;-88
2021/08/13 12:30:35;;;;;;;10.30;9.30;;;34.00;67.80;;;;;;5078432;28;21165;-86
2021/08/13 12:33:04;;;;;;;9.30;8.40;;;34.50;67.70;;;;;;5072412;28;20613;-87
2021/08/13 12:35:39;;;;;;;11.27;9.43;;;34.20;66.90;;;;;;5073239;28;20628;-88
2021/08/13 12:38:07;;;;;;;10.17;8.80;;;33.80;66.50;;;;;;5089479;28;21023;-87
2021/08/13 12:40:43;;;;;;;9.30;8.47;;;33.90;69.00;;;;;;5093308;28;20623;-87
2021/08/13 12:43:11;;;;;;;10.30;9.50;;;34.40;68.00;;;;;;5092300;28;20628;-86
2021/08/13 12:45:38;;;;;;;10.57;9.60;;;35.10;66.30;;;;;;5092919;28;20643;-88
2021/08/13 12:48:06;;;;;;;9.90;8.07;;;35.90;61.00;;;;;;5093225;28;20611;-85
2021/08/13 12:50:33;;;;;;;10.20;9.30;;;36.70;62.30;;;;;;5092805;28;20982;-87